Time;durP1;ratioP1;P1;durP2;ratioP2;P2;SDS_P1;SDS_P2;PMS_P1;PMS_P2;Temp;Humidity;BMP_temperature;BMP_pressure;BME280_temperature;BME280_humidity;BME280_pressure;Samples;Min_cycle;Max_cycle;Signal;HPM_P1;HPM_P2
2022/03/04 00:01:12;;;;;;;19.65;9.10;;;2.90;48.20;;;;;;2344529;55;20944;-64
2022/03/04 00:03:39;;;;;;;18.37;10.07;;;2.90;48.30;;;;;;2278109;55;20951;-65
2022/03/04 00:06:06;;;;;;;19.10;9.57;;;2.90;48.30;;;;;;2277999;55;20942;-65
2022/03/04 00:08:32;;;;;;;22.67;10.98;;;2.80;48.30;;;;;;2280857;55;21038;-65
2022/03/04 00:10:59;;;;;;;18.20;9.15;;;2.80;48.40;;;;;;2284608;55;21286;-63
2022/03/04 00:13:27;;;;;;;24.02;9.80;;;2.80;48.40;;;;;;2267437;55;20978;-65
2022/03/04 00:15:53;;;;;;;20.95;9.57;;;2.70;48.40;;;;;;2295447;55;20943;-65
2022/03/04 00:18:20;;;;;;;16.20;8.07;;;2.70;48.60;;;;;;2281996;55;21102;-65
2022/03/04 00:20:46;;;;;;;17.55;9.07;;;2.70;49.10;;;;;;2314809;55;21443;-63
2022/03/04 00:23:15;;;;;;;16.02;8.13;;;2.70;48.50;;;;;;2373117;55;21058;-63
2022/03/04 00:25:42;;;;;;;16.67;8.40;;;2.60;48.40;;;;;;2281735;55;20982;-65
2022/03/04 00:28:08;;;;;;;16.08;7.68;;;2.60;48.50;;;;;;2279202;55;20933;-64
2022/03/04 00:30:35;;;;;;;15.20;7.50;;;2.60;48.50;;;;;;2329351;55;21521;-65
2022/03/04 00:33:01;;;;;;;13.80;6.95;;;2.60;48.70;;;;;;2277618;56;20951;-64
2022/03/04 00:35:27;;;;;;;15.45;7.72;;;2.60;48.70;;;;;;2467099;55;21432;-66
2022/03/04 00:37:54;;;;;;;13.57;6.57;;;2.60;48.70;;;;;;2279116;56;20947;-65
2022/03/04 00:40:20;;;;;;;16.05;7.62;;;2.60;48.70;;;;;;2302099;55;21530;-65
2022/03/04 00:42:48;;;;;;;15.23;7.05;;;2.50;48.60;;;;;;2278432;56;20947;-65
2022/03/04 00:45:15;;;;;;;18.10;7.75;;;2.50;48.70;;;;;;2274831;55;21075;-65
2022/03/04 00:47:41;;;;;;;19.37;9.02;;;2.50;48.70;;;;;;2276278;55;21555;-65
2022/03/04 00:50:26;;;;;;;18.73;9.23;;;2.50;48.70;;;;;;2507892;55;21003;-66
2022/03/04 00:52:52;;;;;;;19.55;9.23;;;2.40;48.90;;;;;;2278318;56;21496;-65
2022/03/04 00:55:19;;;;;;;17.10;8.02;;;2.40;48.70;;;;;;2282514;55;21423;-66
2022/03/04 00:57:45;;;;;;;18.30;8.93;;;2.40;48.70;;;;;;2268409;56;20933;-66
2022/03/04 01:00:14;;;;;;;18.00;8.23;;;2.40;48.70;;;;;;2342823;55;21484;-65
2022/03/04 01:02:40;;;;;;;17.35;8.20;;;2.30;48.70;;;;;;2271749;55;20940;-64
2022/03/04 01:05:08;;;;;;;13.25;7.07;;;2.30;48.70;;;;;;2270026;55;21432;-66
2022/03/04 01:07:34;;;;;;;16.17;7.28;;;2.30;48.70;;;;;;2276879;55;21493;-64
2022/03/04 01:10:02;;;;;;;19.42;7.75;;;2.20;48.60;;;;;;2273086;56;21424;-64
2022/03/04 01:12:32;;;;;;;16.25;7.93;;;2.20;48.70;;;;;;2441378;54;21000;-64
2022/03/04 01:14:58;;;;;;;15.02;7.85;;;2.20;48.70;;;;;;2283167;55;20977;-65
2022/03/04 01:17:53;;;;;;;18.30;8.65;;;2.20;48.70;;;;;;2287648;55;21118;-64
2022/03/04 01:20:19;;;;;;;18.95;8.70;;;2.20;48.90;;;;;;2283941;55;20977;-65
2022/03/04 01:22:46;;;;;;;18.98;8.48;;;2.10;48.60;;;;;;2355414;55;21531;-66
2022/03/04 01:25:12;;;;;;;19.45;9.40;;;2.10;48.60;;;;;;2290699;54;21002;-66
2022/03/04 01:27:39;;;;;;;13.88;6.82;;;2.00;48.70;;;;;;2410218;55;20978;-65
2022/03/04 01:30:06;;;;;;;16.30;7.75;;;2.00;48.40;;;;;;2288789;55;20970;-65
2022/03/04 01:32:32;;;;;;;15.20;7.32;;;2.00;48.80;;;;;;2342922;55;21522;-65
2022/03/04 01:34:59;;;;;;;13.62;7.15;;;2.00;48.90;;;;;;2285516;55;20933;-66
2022/03/04 01:37:27;;;;;;;18.70;8.32;;;2.00;48.90;;;;;;2391708;55;20969;-65
2022/03/04 01:39:53;;;;;;;26.35;11.25;;;1.90;48.90;;;;;;2290965;55;21034;-64
2022/03/04 01:42:19;;;;;;;31.30;12.52;;;1.90;48.90;;;;;;2306007;55;20954;-65
2022/03/04 01:44:46;;;;;;;27.70;10.40;;;1.90;49.00;;;;;;2289614;55;21324;-66
2022/03/04 01:47:12;;;;;;;20.00;9.50;;;1.90;49.20;;;;;;2290574;54;20962;-65
2022/03/04 01:49:40;;;;;;;16.77;7.90;;;1.90;49.00;;;;;;2273604;55;20962;-66
2022/03/04 01:55:34;;;;;;;16.95;7.65;;;1.90;49.10;;;;;;2519769;55;20978;-64
2022/03/04 01:58:00;;;;;;;14.98;7.53;;;1.80;48.90;;;;;;2290491;55;21006;-66
2022/03/04 02:00:29;;;;;;;16.90;7.28;;;1.80;48.90;;;;;;2282371;55;21042;-63
2022/03/04 02:02:59;;;;;;;16.40;7.05;;;1.80;49.00;;;;;;2343258;55;20970;-66
2022/03/04 02:05:26;;;;;;;14.05;6.45;;;1.80;49.00;;;;;;2289441;55;20958;-66
2022/03/04 02:07:53;;;;;;;14.00;6.90;;;1.70;48.90;;;;;;2516634;55;20964;-64
2022/03/04 02:10:42;;;;;;;15.27;6.78;;;1.70;48.90;;;;;;2288789;55;21093;-66
2022/03/04 02:13:10;;;;;;;17.10;8.07;;;1.70;49.10;;;;;;2369778;55;21483;-65
2022/03/04 02:15:37;;;;;;;16.90;7.93;;;1.70;49.00;;;;;;2286203;55;21034;-64
2022/03/04 02:18:22;;;;;;;14.15;7.60;;;1.60;49.00;;;;;;2284957;54;20941;-64
2022/03/04 02:20:49;;;;;;;19.73;8.65;;;1.60;49.10;;;;;;2288805;55;21006;-66
2022/03/04 02:23:16;;;;;;;18.52;7.60;;;1.60;49.00;;;;;;2424017;54;21001;-64
2022/03/04 02:25:50;;;;;;;16.60;7.40;;;1.60;49.10;;;;;;2282519;55;21028;-64
2022/03/04 02:28:17;;;;;;;15.05;7.53;;;1.50;49.00;;;;;;2520366;55;20938;-65
2022/03/04 02:30:44;;;;;;;16.55;7.60;;;1.50;49.00;;;;;;2286402;55;20949;-64
2022/03/04 02:33:31;;;;;;;18.50;7.90;;;1.50;49.10;;;;;;2338949;55;20954;-66
2022/03/04 02:36:00;;;;;;;16.45;8.13;;;1.50;49.30;;;;;;2284254;55;21500;-64
2022/03/04 02:38:41;;;;;;;16.48;7.87;;;1.40;49.00;;;;;;2281995;55;21451;-64
2022/03/04 02:41:08;;;;;;;16.45;8.18;;;1.40;49.30;;;;;;2264372;56;21121;-64
2022/03/04 02:43:34;;;;;;;16.75;7.90;;;1.40;49.20;;;;;;2344717;55;20981;-63
2022/03/04 02:46:01;;;;;;;15.07;7.70;;;1.40;49.20;;;;;;2287183;55;21343;-66
2022/03/04 02:48:27;;;;;;;17.40;8.00;;;1.30;49.20;;;;;;2281184;55;21013;-65
2022/03/04 02:50:54;;;;;;;18.25;8.27;;;1.30;49.30;;;;;;2287646;55;21005;-65
2022/03/04 02:53:29;;;;;;;16.37;7.12;;;1.30;49.30;;;;;;2287586;55;20974;-64
2022/03/04 02:55:56;;;;;;;14.90;6.80;;;1.30;49.50;;;;;;2281284;55;21882;-66
2022/03/04 02:58:28;;;;;;;16.12;8.05;;;1.30;49.50;;;;;;2287732;55;20966;-65
2022/03/04 03:00:55;;;;;;;14.65;7.00;;;1.30;49.60;;;;;;2285846;55;20974;-63
2022/03/04 03:03:21;;;;;;;17.45;7.22;;;1.30;49.60;;;;;;2281444;55;20998;-64
2022/03/04 03:05:51;;;;;;;15.65;7.03;;;1.30;49.70;;;;;;2286700;55;20962;-66
2022/03/04 03:08:17;;;;;;;14.38;6.95;;;1.20;49.60;;;;;;2283571;55;21026;-66
2022/03/04 03:10:43;;;;;;;16.00;6.97;;;1.20;49.70;;;;;;2364409;55;20966;-64
2022/03/04 03:13:09;;;;;;;15.13;7.87;;;1.20;49.70;;;;;;2286282;54;20985;-64
2022/03/04 03:15:36;;;;;;;15.57;7.10;;;1.20;49.60;;;;;;2462481;55;21030;-66
2022/03/04 03:18:02;;;;;;;15.43;6.35;;;1.20;49.70;;;;;;2287737;55;20949;-67
2022/03/04 03:20:28;;;;;;;17.05;6.72;;;1.20;49.60;;;;;;2288420;55;22328;-65
2022/03/04 03:22:55;;;;;;;15.23;7.47;;;1.20;49.50;;;;;;2290114;55;21507;-65
2022/03/04 03:25:22;;;;;;;12.23;6.00;;;1.20;49.60;;;;;;2287491;55;21785;-64
2022/03/04 03:27:48;;;;;;;14.15;6.30;;;1.20;49.60;;;;;;2280948;55;21635;-63
2022/03/04 03:30:15;;;;;;;13.65;6.50;;;1.20;49.60;;;;;;2269108;55;1399745;-66
2022/03/04 03:32:42;;;;;;;13.07;6.62;;;1.20;49.60;;;;;;2284485;55;20938;-66
2022/03/04 03:35:09;;;;;;;14.73;7.03;;;1.10;49.50;;;;;;2521555;55;21089;-64
2022/03/04 03:37:36;;;;;;;13.00;7.35;;;1.10;49.50;;;;;;2287642;55;21069;-66
2022/03/04 03:40:04;;;;;;;13.70;6.75;;;1.10;49.40;;;;;;2287394;55;20958;-65
2022/03/04 03:42:30;;;;;;;14.90;6.57;;;1.10;49.50;;;;;;2287361;55;21538;-66
2022/03/04 03:44:57;;;;;;;15.05;6.87;;;1.10;49.40;;;;;;2287180;55;20942;-66
2022/03/04 03:47:23;;;;;;;13.77;6.47;;;1.00;49.40;;;;;;2287376;55;20974;-65
2022/03/04 03:49:51;;;;;;;15.88;6.65;;;1.00;49.40;;;;;;2287743;55;21006;-65
2022/03/04 03:52:18;;;;;;;11.27;5.28;;;1.00;49.40;;;;;;2265358;56;20978;-64
2022/03/04 03:54:44;;;;;;;12.25;5.65;;;1.00;49.30;;;;;;2287707;55;20969;-63
2022/03/04 03:57:14;;;;;;;14.10;6.82;;;1.00;49.30;;;;;;2289110;55;21049;-66
2022/03/04 03:59:43;;;;;;;16.23;7.22;;;0.90;49.30;;;;;;2289051;55;22475;-65
2022/03/04 04:02:10;;;;;;;14.38;7.25;;;0.90;49.40;;;;;;2290870;55;21038;-65
2022/03/04 04:04:36;;;;;;;13.80;6.53;;;0.90;49.50;;;;;;2287159;54;20961;-63
2022/03/04 04:07:04;;;;;;;14.57;6.20;;;0.90;49.50;;;;;;2288124;55;21005;-64
2022/03/04 04:09:32;;;;;;;15.57;6.85;;;0.80;49.40;;;;;;2289695;55;21522;-64
2022/03/04 04:11:59;;;;;;;15.48;7.07;;;0.80;49.40;;;;;;2289287;55;20978;-65
2022/03/04 04:14:26;;;;;;;12.73;6.25;;;0.80;49.50;;;;;;2290101;55;21127;-63
2022/03/04 04:16:53;;;;;;;15.23;6.85;;;0.80;49.50;;;;;;2291098;55;20953;-65
2022/03/04 04:19:19;;;;;;;15.85;6.55;;;0.80;49.40;;;;;;2386492;55;20967;-65
2022/03/04 04:21:46;;;;;;;15.15;7.78;;;0.70;49.40;;;;;;2287750;55;21932;-64
2022/03/04 04:24:12;;;;;;;14.55;6.62;;;0.70;49.50;;;;;;2291560;54;20978;-65
2022/03/04 04:26:41;;;;;;;16.67;6.50;;;0.70;49.50;;;;;;2286970;55;20953;-64
2022/03/04 04:29:07;;;;;;;16.87;7.62;;;0.70;49.50;;;;;;2289602;55;20962;-65
2022/03/04 04:31:35;;;;;;;12.60;6.50;;;0.70;49.50;;;;;;2289584;55;21029;-64
2022/03/04 04:34:02;;;;;;;15.52;7.35;;;0.70;49.50;;;;;;2289029;55;21006;-64
2022/03/04 04:36:29;;;;;;;15.75;7.60;;;0.60;49.50;;;;;;2291313;55;20966;-63
2022/03/04 04:38:55;;;;;;;15.60;6.97;;;0.60;49.50;;;;;;2336482;55;21025;-65
2022/03/04 04:41:22;;;;;;;21.37;9.13;;;0.60;49.50;;;;;;2288987;55;21129;-65
2022/03/04 04:43:49;;;;;;;19.02;7.85;;;0.60;49.60;;;;;;2289268;55;20982;-65
2022/03/04 04:46:16;;;;;;;13.38;6.78;;;0.50;49.50;;;;;;2289543;55;20961;-66
2022/03/04 04:48:42;;;;;;;16.33;7.85;;;0.50;49.50;;;;;;2289236;55;20942;-66
2022/03/04 04:51:11;;;;;;;16.23;7.22;;;0.50;49.50;;;;;;2318745;55;20986;-64
2022/03/04 04:53:38;;;;;;;16.35;7.95;;;0.50;49.60;;;;;;2293165;55;21558;-65
2022/03/04 04:56:05;;;;;;;11.30;6.18;;;0.50;49.60;;;;;;2288703;55;21026;-65
2022/03/04 04:58:31;;;;;;;19.12;8.68;;;0.40;49.50;;;;;;2289477;55;20954;-63
2022/03/04 05:00:57;;;;;;;16.98;7.15;;;0.40;49.50;;;;;;2282368;55;20998;-64
2022/03/04 05:03:24;;;;;;;19.95;8.05;;;0.40;49.60;;;;;;2290798;55;20934;-65
2022/03/04 05:05:51;;;;;;;17.70;8.10;;;0.40;49.60;;;;;;2378937;55;20959;-64
2022/03/04 05:08:17;;;;;;;15.48;7.85;;;0.40;49.60;;;;;;2285764;55;20934;-65
2022/03/04 05:10:44;;;;;;;17.05;8.48;;;0.30;49.60;;;;;;2282866;55;21017;-66
2022/03/04 05:13:11;;;;;;;18.10;8.88;;;0.30;49.60;;;;;;2289338;55;20965;-67
2022/03/04 05:15:38;;;;;;;14.38;7.32;;;0.30;49.60;;;;;;2289528;55;20994;-64
2022/03/04 05:18:05;;;;;;;17.00;8.27;;;0.30;49.60;;;;;;2353599;54;21893;-64
2022/03/04 05:20:32;;;;;;;17.48;9.55;;;0.30;49.60;;;;;;2290106;54;21021;-66
2022/03/04 05:22:58;;;;;;;19.95;8.48;;;0.30;49.70;;;;;;2286080;55;21023;-64
2022/03/04 05:25:24;;;;;;;18.10;8.60;;;0.20;49.60;;;;;;2285988;55;22098;-65
2022/03/04 05:27:51;;;;;;;15.48;7.78;;;0.20;49.60;;;;;;2517250;55;20973;-66
2022/03/04 05:30:17;;;;;;;15.93;7.35;;;0.20;49.60;;;;;;2287211;55;20958;-64
2022/03/04 05:32:43;;;;;;;13.10;6.80;;;0.20;49.60;;;;;;2508942;55;21029;-65
2022/03/04 05:35:10;;;;;;;14.90;7.62;;;0.20;49.60;;;;;;2290277;54;21043;-65
2022/03/04 05:37:37;;;;;;;15.95;8.07;;;0.10;49.60;;;;;;2273763;55;20994;-65
2022/03/04 05:40:05;;;;;;;14.45;7.35;;;0.10;49.60;;;;;;2514105;55;21030;-66
2022/03/04 05:42:33;;;;;;;16.45;7.53;;;0.10;49.60;;;;;;2280894;55;21471;-64
2022/03/04 05:45:00;;;;;;;14.32;7.40;;;0.00;49.50;;;;;;2281729;55;21591;-65
2022/03/04 05:47:26;;;;;;;14.55;6.97;;;0.10;49.60;;;;;;2287717;55;21022;-66
2022/03/04 05:49:53;;;;;;;18.42;7.62;;;0.00;49.50;;;;;;2305783;55;21006;-66
2022/03/04 05:52:25;;;;;;;18.85;8.20;;;0.00;49.50;;;;;;2284897;55;20954;-66
2022/03/04 05:54:51;;;;;;;15.18;6.68;;;0.00;49.60;;;;;;2286539;55;21005;-65
2022/03/04 05:57:18;;;;;;;12.85;6.25;;;-0.10;49.50;;;;;;2286351;55;21009;-65
2022/03/04 05:59:44;;;;;;;13.85;6.85;;;-0.10;50.10;;;;;;2283222;55;21017;-65
2022/03/04 06:02:10;;;;;;;15.82;7.72;;;-0.10;49.50;;;;;;2287206;55;21561;-65
2022/03/04 06:04:37;;;;;;;18.98;8.43;;;-0.10;49.60;;;;;;2287105;55;20970;-64
2022/03/04 06:07:24;;;;;;;13.85;6.95;;;-0.10;49.60;;;;;;2283965;55;20922;-65
2022/03/04 06:09:51;;;;;;;15.70;7.18;;;-0.20;49.70;;;;;;2285858;55;20984;-66
2022/03/04 06:12:17;;;;;;;17.67;8.30;;;-0.20;49.60;;;;;;2287715;54;20982;-65
2022/03/04 06:14:44;;;;;;;17.60;8.27;;;-0.20;49.60;;;;;;2286947;55;21026;-65
2022/03/04 06:17:10;;;;;;;18.67;8.02;;;-0.20;49.70;;;;;;2284849;55;20946;-63
2022/03/04 06:19:37;;;;;;;15.25;7.32;;;-0.20;49.70;;;;;;2479310;55;20938;-66
2022/03/04 06:22:03;;;;;;;16.33;7.47;;;-0.20;49.80;;;;;;2289480;55;21040;-65
2022/03/04 06:24:31;;;;;;;19.33;8.15;;;-0.20;49.80;;;;;;2276059;55;21820;-66
2022/03/04 06:26:57;;;;;;;17.98;8.18;;;-0.20;49.90;;;;;;2284698;55;20993;-65
2022/03/04 06:29:25;;;;;;;16.87;8.15;;;-0.20;49.90;;;;;;2287385;55;21032;-64
2022/03/04 06:31:52;;;;;;;17.58;8.75;;;-0.20;50.00;;;;;;2287279;55;21431;-64
2022/03/04 06:34:18;;;;;;;19.35;9.45;;;-0.20;50.00;;;;;;2288345;55;21044;-65
2022/03/04 06:36:45;;;;;;;18.20;9.38;;;-0.20;50.10;;;;;;2333879;55;21095;-64
2022/03/04 06:39:12;;;;;;;19.85;9.68;;;-0.20;50.20;;;;;;2265004;55;20966;-64
2022/03/04 06:41:38;;;;;;;16.92;8.13;;;-0.20;50.40;;;;;;2287348;55;21566;-65
2022/03/04 06:47:30;;;;;;;18.25;8.77;;;-0.20;50.60;;;;;;2287018;55;21344;-65
2022/03/04 06:49:59;;;;;;;22.73;10.48;;;-0.20;50.40;;;;;;2290221;55;21084;-65
2022/03/04 06:52:44;;;;;;;21.00;10.32;;;-0.20;50.50;;;;;;2508273;54;21452;-65
2022/03/04 06:55:11;;;;;;;28.27;12.00;;;-0.10;50.70;;;;;;2272346;55;20962;-66
2022/03/04 06:57:39;;;;;;;28.98;12.73;;;-0.10;50.60;;;;;;2287140;55;21049;-65
2022/03/04 07:00:18;;;;;;;26.58;11.57;;;-0.10;50.60;;;;;;2287300;55;21742;-65
2022/03/04 07:03:30;;;;;;;27.75;12.88;;;-0.10;50.80;;;;;;2276878;55;20973;-64
2022/03/04 07:05:58;;;;;;;23.52;11.45;;;0.00;50.90;;;;;;2351186;55;20966;-66
2022/03/04 07:08:26;;;;;;;23.30;10.63;;;0.00;50.80;;;;;;2289710;55;20986;-65
2022/03/04 07:10:53;;;;;;;22.10;10.20;;;0.00;50.80;;;;;;2354067;55;21517;-65
2022/03/04 07:13:21;;;;;;;28.73;12.10;;;0.10;50.90;;;;;;2287355;55;21558;-65
2022/03/04 07:15:49;;;;;;;24.98;12.00;;;0.10;51.00;;;;;;2287404;55;20934;-64
2022/03/04 07:18:18;;;;;;;28.08;12.48;;;0.00;51.00;;;;;;2287174;55;21033;-63
2022/03/04 07:20:44;;;;;;;29.83;13.93;;;0.20;51.20;;;;;;2288871;55;21081;-64
2022/03/04 07:23:11;;;;;;;26.08;12.82;;;0.30;51.30;;;;;;2454257;55;21014;-66
2022/03/04 07:25:38;;;;;;;23.90;11.60;;;0.30;51.30;;;;;;2287544;55;20974;-65
2022/03/04 07:28:05;;;;;;;30.15;13.85;;;0.40;51.50;;;;;;2287509;55;20957;-66
2022/03/04 07:30:32;;;;;;;31.75;13.93;;;0.40;51.50;;;;;;2287584;55;20985;-65
2022/03/04 07:32:59;;;;;;;26.52;12.93;;;0.50;51.60;;;;;;2287979;55;20946;-65
2022/03/04 07:35:25;;;;;;;26.80;12.45;;;0.60;51.80;;;;;;2359951;55;20957;-66
2022/03/04 07:38:16;;;;;;;27.50;12.88;;;0.60;51.80;;;;;;2287222;55;21005;-65
2022/03/04 07:40:43;;;;;;;29.45;12.48;;;0.70;52.10;;;;;;2287530;55;21419;-63
2022/03/04 07:43:10;;;;;;;50.25;17.37;;;0.80;52.00;;;;;;2289549;55;21043;-66
2022/03/04 07:45:36;;;;;;;29.12;13.45;;;0.90;52.10;;;;;;2284833;55;20961;-67
2022/03/04 07:48:05;;;;;;;25.27;12.45;;;1.00;52.10;;;;;;2287182;55;21003;-63
2022/03/04 07:50:31;;;;;;;22.75;11.23;;;1.00;52.10;;;;;;2287640;55;20954;-64
2022/03/04 07:53:00;;;;;;;21.70;10.48;;;1.10;52.20;;;;;;2521777;55;21036;-66
2022/03/04 07:55:27;;;;;;;18.20;9.18;;;1.20;52.20;;;;;;2287319;55;20934;-65
2022/03/04 07:57:56;;;;;;;22.08;10.10;;;1.30;52.30;;;;;;2521913;55;21044;-64
2022/03/04 08:00:24;;;;;;;19.42;9.45;;;1.40;52.30;;;;;;2287302;55;21602;-64
2022/03/04 08:02:52;;;;;;;20.88;10.23;;;1.50;52.40;;;;;;2520529;55;21631;-65
2022/03/04 08:05:18;;;;;;;19.35;9.60;;;1.50;52.30;;;;;;2286761;55;20981;-65
2022/03/04 08:07:45;;;;;;;17.77;9.50;;;1.60;52.40;;;;;;2451187;55;21029;-66
2022/03/04 08:10:11;;;;;;;19.02;10.00;;;1.80;52.50;;;;;;2421139;55;21049;-65
2022/03/04 08:12:38;;;;;;;21.85;10.15;;;1.80;52.50;;;;;;2511059;55;20973;-63
2022/03/04 08:15:06;;;;;;;20.55;10.32;;;1.90;52.50;;;;;;2287364;55;20954;-65
2022/03/04 08:17:33;;;;;;;20.80;10.68;;;2.00;52.60;;;;;;2418949;54;20958;-64
2022/03/04 08:19:59;;;;;;;22.52;10.95;;;2.10;52.60;;;;;;2287128;54;21322;-64
2022/03/04 08:22:26;;;;;;;20.20;10.77;;;2.20;52.60;;;;;;2376451;55;21573;-65
2022/03/04 08:24:53;;;;;;;25.37;11.50;;;2.30;52.60;;;;;;2287081;55;20959;-64
2022/03/04 08:27:21;;;;;;;25.20;10.95;;;2.40;52.70;;;;;;2392566;54;21467;-65
2022/03/04 08:29:48;;;;;;;19.87;10.73;;;2.50;52.70;;;;;;2285804;55;20958;-65
2022/03/04 08:32:16;;;;;;;23.25;11.65;;;2.60;52.70;;;;;;2521252;55;21081;-63
2022/03/04 08:34:44;;;;;;;22.13;11.50;;;2.70;52.90;;;;;;2287537;55;20930;-65
2022/03/04 08:37:10;;;;;;;20.35;10.70;;;2.90;53.60;;;;;;2521222;55;21030;-65
2022/03/04 08:39:37;;;;;;;18.83;10.45;;;3.10;54.40;;;;;;2292774;55;20954;-64
2022/03/04 08:42:06;;;;;;;18.00;10.18;;;3.40;55.30;;;;;;2521440;55;21033;-63
2022/03/04 08:44:34;;;;;;;18.27;9.82;;;3.90;56.20;;;;;;2288903;55;20958;-65
2022/03/04 08:47:00;;;;;;;16.55;8.70;;;4.30;57.00;;;;;;2521527;55;20966;-66
2022/03/04 08:49:27;;;;;;;15.18;8.88;;;4.90;57.70;;;;;;2286878;55;20886;-65
2022/03/04 08:51:55;;;;;;;14.05;8.55;;;5.40;57.90;;;;;;2517274;55;21097;-65
2022/03/04 08:54:22;;;;;;;15.05;8.82;;;5.90;57.80;;;;;;2285316;55;20966;-66
2022/03/04 08:56:48;;;;;;;13.55;8.52;;;6.40;57.70;;;;;;2480478;54;20994;-64
2022/03/04 08:59:15;;;;;;;12.30;8.32;;;6.90;57.60;;;;;;2286578;55;20945;-65
2022/03/04 09:01:41;;;;;;;12.90;8.38;;;7.40;57.30;;;;;;2521856;55;21125;-65
2022/03/04 09:04:07;;;;;;;13.93;7.87;;;7.80;56.80;;;;;;2287708;55;21732;-65
2022/03/04 09:06:35;;;;;;;15.70;9.93;;;8.20;55.80;;;;;;2333072;55;21490;-67
2022/03/04 09:09:01;;;;;;;14.87;9.20;;;8.40;54.80;;;;;;2287596;54;20962;-65
2022/03/04 09:11:28;;;;;;;12.57;8.45;;;8.50;53.90;;;;;;2354183;55;21065;-66
2022/03/04 09:13:54;;;;;;;13.88;8.65;;;8.60;53.40;;;;;;2289063;55;21078;-65
2022/03/04 09:16:21;;;;;;;15.55;9.50;;;8.70;52.80;;;;;;2314568;55;20954;-66
2022/03/04 09:18:48;;;;;;;14.10;8.32;;;8.70;52.40;;;;;;2290746;55;21456;-64
2022/03/04 09:21:15;;;;;;;15.57;9.43;;;8.80;52.20;;;;;;2496173;55;20966;-65
2022/03/04 09:23:41;;;;;;;14.93;8.82;;;8.80;52.00;;;;;;2378703;55;20969;-65
2022/03/04 09:26:08;;;;;;;13.82;8.40;;;8.80;51.90;;;;;;2293792;55;21538;-65
2022/03/04 09:28:36;;;;;;;15.70;9.68;;;8.80;51.80;;;;;;2288317;55;20969;-66
2022/03/04 09:31:04;;;;;;;16.27;9.35;;;8.90;52.10;;;;;;2288733;54;20985;-65
2022/03/04 09:33:30;;;;;;;14.68;8.73;;;9.00;52.20;;;;;;2280392;55;21570;-66
2022/03/04 09:35:57;;;;;;;13.98;8.63;;;9.10;52.90;;;;;;2405416;55;21039;-66
2022/03/04 09:38:29;;;;;;;13.40;8.85;;;9.30;52.40;;;;;;2287829;55;20954;-65
2022/03/04 09:40:56;;;;;;;;;;;9.50;52.20;;;;;;2523154;54;20945;-66
2022/03/04 09:43:23;;;;;;;14.82;8.60;;;9.70;51.80;;;;;;2423819;55;20133;-66
2022/03/04 09:45:50;;;;;;;14.30;8.75;;;10.00;51.60;;;;;;2516093;55;21514;-67
2022/03/04 09:48:16;;;;;;;13.88;9.05;;;10.20;51.50;;;;;;2285993;55;21064;-64
2022/03/04 09:50:44;;;;;;;15.00;9.10;;;10.40;51.20;;;;;;2433056;55;21054;-66
2022/03/04 09:53:11;;;;;;;12.77;8.70;;;10.60;50.90;;;;;;2520482;55;20970;-66
2022/03/04 09:55:38;;;;;;;17.65;10.10;;;10.70;50.80;;;;;;2286856;55;21417;-66
2022/03/04 09:58:11;;;;;;;16.12;10.23;;;10.90;50.90;;;;;;2287099;55;20961;-65
2022/03/04 10:00:39;;;;;;;15.38;10.02;;;11.10;50.70;;;;;;2295979;55;21067;-64
2022/03/04 10:03:06;;;;;;;15.65;9.10;;;11.20;50.90;;;;;;2287554;55;20977;-66
2022/03/04 10:05:33;;;;;;;14.75;9.43;;;11.30;50.90;;;;;;2518500;54;21459;-65
2022/03/04 10:07:59;;;;;;;13.23;9.07;;;11.40;50.90;;;;;;2285493;54;22399;-64
2022/03/04 10:10:48;;;;;;;15.05;9.18;;;11.50;51.10;;;;;;2287384;55;20961;-66
2022/03/04 10:13:46;;;;;;;17.37;9.90;;;11.70;50.80;;;;;;2380626;55;20993;-65
2022/03/04 10:16:32;;;;;;;13.80;8.75;;;12.00;51.40;;;;;;2345599;55;21042;-67
2022/03/04 10:19:59;;;;;;;16.40;10.15;;;12.30;51.50;;;;;;2286364;54;21630;-66
2022/03/04 10:22:38;;;;;;;13.93;8.88;;;12.70;51.00;;;;;;2445071;55;21591;-66
2022/03/04 10:25:41;;;;;;;12.80;7.93;;;13.00;51.70;;;;;;2517862;55;21097;-67
2022/03/04 10:28:09;;;;;;;15.13;8.82;;;13.40;50.70;;;;;;2450345;55;20950;-66
2022/03/04 10:30:35;;;;;;;14.18;9.13;;;13.70;52.10;;;;;;2278959;55;20946;-67
2022/03/04 10:33:07;;;;;;;14.73;9.68;;;14.00;52.10;;;;;;2290474;55;21009;-66
2022/03/04 10:35:36;;;;;;;14.07;9.03;;;14.30;52.10;;;;;;2363538;55;21447;-66
2022/03/04 10:38:22;;;;;;;12.18;9.10;;;14.70;52.80;;;;;;2284531;55;21413;-66
2022/03/04 10:40:49;;;;;;;11.00;8.30;;;15.10;51.50;;;;;;2284740;54;21022;-67
2022/03/04 10:43:31;;;;;;;12.95;8.20;;;15.50;53.00;;;;;;2392366;55;21030;-66
2022/03/04 10:46:03;;;;;;;12.73;8.82;;;15.90;51.50;;;;;;2291281;55;21030;-67
2022/03/04 10:48:29;;;;;;;11.32;8.25;;;16.20;52.00;;;;;;2515006;55;20954;-67
2022/03/04 10:50:58;;;;;;;11.50;7.68;;;16.40;51.40;;;;;;2281402;55;21021;-67
2022/03/04 10:53:34;;;;;;;13.15;8.40;;;16.50;50.60;;;;;;2521753;55;21470;-67
2022/03/04 10:56:46;;;;;;;12.73;8.30;;;16.70;49.50;;;;;;2287972;55;21089;-66
2022/03/04 11:02:43;;;;;;;10.23;7.07;;;16.90;48.60;;;;;;2290014;55;20452;-67
2022/03/04 11:05:10;;;;;;;13.52;8.32;;;17.00;48.60;;;;;;2516386;54;20934;-66
2022/03/04 11:07:37;;;;;;;12.40;9.02;;;17.00;48.50;;;;;;2289132;55;21018;-67
2022/03/04 11:10:04;;;;;;;12.48;8.80;;;17.10;48.00;;;;;;2286653;55;20942;-66
2022/03/04 11:12:30;;;;;;;12.98;9.20;;;17.10;47.40;;;;;;2287149;55;20974;-68
2022/03/04 11:14:57;;;;;;;13.40;8.63;;;17.10;47.20;;;;;;2282275;55;21002;-66
2022/03/04 11:17:24;;;;;;;13.15;8.35;;;17.10;46.90;;;;;;2282109;55;20957;-66
2022/03/04 11:19:50;;;;;;;12.80;8.85;;;17.10;46.30;;;;;;2286193;55;21009;-66
2022/03/04 11:22:17;;;;;;;14.13;9.10;;;17.00;45.70;;;;;;2287042;55;20973;-67
2022/03/04 11:24:43;;;;;;;11.88;7.70;;;16.90;45.10;;;;;;2286662;55;21034;-65
2022/03/04 11:27:10;;;;;;;12.90;8.65;;;16.80;44.60;;;;;;2287345;55;21424;-67
2022/03/04 11:29:37;;;;;;;13.70;9.57;;;16.60;44.40;;;;;;2291359;55;20977;-66
2022/03/04 11:32:04;;;;;;;15.20;9.35;;;16.50;44.40;;;;;;2286521;55;20941;-67
2022/03/04 11:34:41;;;;;;;12.50;9.10;;;16.40;44.40;;;;;;2286687;55;21009;-67
2022/03/04 11:37:17;;;;;;;14.15;8.98;;;16.30;44.10;;;;;;2290222;55;20969;-67
2022/03/04 11:43:16;;;;;;;14.98;9.57;;;16.30;44.30;;;;;;2284764;55;21038;-68
2022/03/04 11:45:42;;;;;;;13.18;7.95;;;16.40;44.90;;;;;;2288132;55;20949;-66
2022/03/04 11:48:14;;;;;;;11.75;7.97;;;16.40;45.40;;;;;;2285268;55;20986;-67
2022/03/04 11:50:52;;;;;;;15.10;8.07;;;16.50;44.80;;;;;;2287732;55;21005;-67
2022/03/04 11:53:20;;;;;;;13.00;8.68;;;16.60;44.80;;;;;;2287320;55;21078;-65
2022/03/04 11:56:11;;;;;;;14.40;9.27;;;16.70;45.20;;;;;;2286937;55;21928;-66
2022/03/04 12:05:27;;;;;;;13.65;9.13;;;16.80;43.80;;;;;;2288530;55;21026;-67
2022/03/04 12:08:57;;;;;;;10.63;6.78;;;16.70;43.90;;;;;;2287114;55;21384;-66
2022/03/04 12:11:25;;;;;;;10.85;7.55;;;16.60;43.20;;;;;;2285669;55;22600;-65
2022/03/04 12:14:06;;;;;;;12.65;8.43;;;16.50;43.80;;;;;;2288053;54;20978;-67
2022/03/04 12:16:49;;;;;;;12.50;8.50;;;16.50;43.00;;;;;;2327866;55;22029;-66
2022/03/04 12:19:28;;;;;;;14.75;9.63;;;16.40;42.90;;;;;;2287284;55;21464;-66
2022/03/04 12:21:58;;;;;;;13.70;9.10;;;16.30;42.70;;;;;;2288502;55;20985;-66
2022/03/04 12:24:30;;;;;;;14.87;9.45;;;16.20;43.10;;;;;;2287928;55;20973;-65
2022/03/04 12:26:57;;;;;;;16.42;8.98;;;16.20;43.00;;;;;;2282122;55;21487;-67
2022/03/04 12:29:44;;;;;;;16.60;9.60;;;16.10;43.50;;;;;;2281312;55;20962;-66
2022/03/04 12:32:23;;;;;;;16.67;10.73;;;16.10;42.50;;;;;;2289575;55;21025;-67
2022/03/04 12:34:52;;;;;;;16.75;10.15;;;16.10;42.50;;;;;;2287162;55;21029;-67
2022/03/04 12:37:19;;;;;;;14.63;9.82;;;16.10;42.90;;;;;;2286276;55;21022;-66
2022/03/04 12:39:50;;;;;;;13.13;8.63;;;16.10;42.70;;;;;;2520824;55;20978;-67
2022/03/04 12:42:18;;;;;;;14.55;9.15;;;16.10;42.70;;;;;;2281433;54;21003;-66
2022/03/04 12:44:45;;;;;;;13.48;9.23;;;16.10;42.70;;;;;;2280111;55;21034;-67
2022/03/04 12:47:12;;;;;;;15.25;9.23;;;16.20;42.80;;;;;;2280896;55;21018;-66
2022/03/04 12:49:39;;;;;;;14.10;9.02;;;16.30;43.00;;;;;;2275265;55;20950;-67
2022/03/04 12:52:06;;;;;;;16.75;9.57;;;16.40;43.00;;;;;;2286846;54;20978;-66
2022/03/04 12:54:33;;;;;;;14.32;9.88;;;16.50;42.80;;;;;;2285988;55;20994;-67
2022/03/04 12:57:02;;;;;;;14.65;9.48;;;16.50;42.50;;;;;;2289615;54;21483;-67
2022/03/04 12:59:45;;;;;;;15.38;9.23;;;16.60;42.30;;;;;;2272186;54;21090;-65
2022/03/04 13:02:36;;;;;;;14.05;9.02;;;16.60;41.20;;;;;;2265309;56;21875;-66
2022/03/04 13:05:04;;;;;;;14.38;8.90;;;16.60;41.10;;;;;;2285751;55;21419;-67
2022/03/04 13:07:31;;;;;;;14.90;9.05;;;16.70;42.00;;;;;;2287579;55;20985;-67
2022/03/04 13:09:58;;;;;;;13.55;8.77;;;16.70;42.50;;;;;;2281310;55;21514;-65
2022/03/04 13:12:28;;;;;;;13.23;8.45;;;16.70;41.60;;;;;;2373268;55;21069;-67
2022/03/04 13:15:09;;;;;;;13.73;8.95;;;16.80;41.40;;;;;;2287524;55;21681;-67